createdAt,value
2023-05-10T00:02:07.582Z,17.90
2023-05-10T00:07:12.179Z,17.96
2023-05-10T00:12:15.114Z,17.84
2023-05-10T00:17:17.829Z,17.77
2023-05-10T00:22:21.912Z,17.77
2023-05-10T00:27:24.589Z,17.75
2023-05-10T00:32:27.377Z,17.65
2023-05-10T00:37:31.367Z,17.66
2023-05-10T00:42:34.309Z,17.64
2023-05-10T00:47:37.345Z,17.66
2023-05-10T00:52:41.387Z,17.66
2023-05-10T00:57:44.245Z,17.64
2023-05-10T01:02:48.039Z,17.60
2023-05-10T01:07:52.215Z,17.55
2023-05-10T01:12:54.919Z,17.62
2023-05-10T01:17:57.964Z,17.52
2023-05-10T01:23:33.361Z,17.54
2023-05-10T01:29:00.254Z,17.49
2023-05-10T01:34:09.304Z,17.54
2023-05-10T01:39:17.984Z,17.52
2023-05-10T01:44:26.776Z,17.53
2023-05-10T01:49:33.075Z,17.49
2023-05-10T01:54:36.507Z,17.48
2023-05-10T01:59:41.640Z,17.59
2023-05-10T02:04:47.162Z,17.46
2023-05-10T02:09:50.011Z,17.36
2023-05-10T02:14:53.626Z,17.37
2023-05-10T02:19:58.507Z,17.27
2023-05-10T02:25:01.829Z,17.21
2023-05-10T02:30:05.297Z,17.22
2023-05-10T02:35:10.707Z,17.19
2023-05-10T02:40:14.066Z,17.20
2023-05-10T02:45:19.769Z,17.15
2023-05-10T02:50:24.287Z,17.11
2023-05-10T02:55:29.044Z,17.07
2023-05-10T03:00:31.855Z,17.11
2023-05-10T03:05:35.848Z,17.02
2023-05-10T03:10:43.797Z,17.04
2023-05-10T03:15:51.008Z,17.02
2023-05-10T03:20:59.575Z,16.94
2023-05-10T03:26:03.167Z,16.92
2023-05-10T03:31:07.913Z,16.94
2023-05-10T03:36:12.325Z,16.93
2023-05-10T03:41:15.037Z,16.87
2023-05-10T03:46:17.932Z,16.89
2023-05-10T03:51:23.168Z,16.83
2023-05-10T03:56:25.889Z,16.83
2023-05-10T04:01:28.560Z,16.82
2023-05-10T04:06:32.840Z,16.81
2023-05-10T04:11:35.778Z,16.77
2023-05-10T04:16:38.477Z,16.86
2023-05-10T04:21:42.431Z,16.76
2023-05-10T04:26:45.078Z,16.79
2023-05-10T04:31:47.714Z,16.91
2023-05-10T04:36:51.703Z,16.84
2023-05-10T04:41:54.415Z,16.77
2023-05-10T04:46:57.038Z,16.75
2023-05-10T04:52:01.064Z,16.75
2023-05-10T04:57:03.648Z,16.86
2023-05-10T05:02:07.306Z,16.77
2023-05-10T05:07:11.335Z,16.77
2023-05-10T05:12:15.123Z,16.84
2023-05-10T05:17:17.904Z,16.79
2023-05-10T05:22:28.146Z,16.82
2023-05-10T05:27:31.276Z,16.81
2023-05-10T05:32:33.955Z,16.90
2023-05-10T05:37:38.359Z,16.80
2023-05-10T05:42:40.965Z,16.78
2023-05-10T05:47:43.746Z,16.84
2023-05-10T05:52:47.724Z,16.84
2023-05-10T05:57:50.305Z,16.90
2023-05-10T06:02:53.202Z,17.01
2023-05-10T06:07:57.379Z,16.99
2023-05-10T06:13:00.002Z,17.09
2023-05-10T06:18:02.748Z,17.00
2023-05-10T06:23:34.796Z,17.02
2023-05-10T06:28:40.128Z,16.90
2023-05-10T06:33:45.034Z,16.84
2023-05-10T06:38:49.474Z,16.86
2023-05-10T06:43:52.168Z,16.93
2023-05-10T06:48:54.804Z,16.90
2023-05-10T06:54:03.213Z,16.81
2023-05-10T06:59:05.941Z,16.82
2023-05-10T07:04:08.676Z,16.81
2023-05-10T07:09:12.583Z,16.81
2023-05-10T07:14:15.208Z,16.78
2023-05-10T07:19:17.772Z,16.83
2023-05-10T07:24:24.309Z,16.83
2023-05-10T07:29:27.138Z,16.84
2023-05-10T07:34:31.034Z,16.97
2023-05-10T07:39:35.052Z,16.83
2023-05-10T07:44:37.677Z,16.81
2023-05-10T07:49:40.290Z,16.80
2023-05-10T07:54:45.491Z,16.83
2023-05-10T07:59:48.415Z,16.81
2023-05-10T08:04:50.986Z,16.95
2023-05-10T08:09:54.938Z,16.94
2023-05-10T08:14:57.951Z,16.98
2023-05-10T08:20:00.558Z,17.00
2023-05-10T08:25:04.714Z,16.99
2023-05-10T08:30:08.812Z,17.11
2023-05-10T08:35:11.432Z,17.04
2023-05-10T08:40:16.437Z,17.01
2023-05-10T08:45:20.182Z,17.15
2023-05-10T08:50:23.790Z,17.13
2023-05-10T08:55:27.826Z,17.14
2023-05-10T09:00:30.967Z,17.16
2023-05-10T09:05:33.737Z,17.13
2023-05-10T09:10:37.767Z,17.11
2023-05-10T09:15:40.388Z,17.28
2023-05-10T09:20:43.129Z,17.28
2023-05-10T09:25:47.198Z,17.33
2023-05-10T09:30:56.353Z,17.37
2023-05-10T09:36:08.736Z,17.44
2023-05-10T09:41:19.335Z,17.47
2023-05-10T09:46:22.015Z,17.37
2023-05-10T09:51:26.123Z,17.28
2023-05-10T09:56:36.869Z,17.31
2023-05-10T10:01:39.860Z,17.32
2023-05-10T10:06:43.063Z,17.36
2023-05-10T10:11:47.003Z,17.41
2023-05-10T10:17:05.566Z,17.40
2023-05-10T10:22:11.712Z,17.50
2023-05-10T10:27:23.760Z,17.50
2023-05-10T10:32:32.117Z,17.68
2023-05-10T10:37:45.032Z,17.62
2023-05-10T10:42:50.758Z,17.71
2023-05-10T10:48:10.854Z,18.04
2023-05-10T10:53:13.903Z,17.86
2023-05-10T10:58:33.581Z,18.13
2023-05-10T11:03:36.286Z,17.93
2023-05-10T11:08:45.394Z,18.14
2023-05-10T11:13:51.315Z,17.97
2023-05-10T11:18:56.120Z,18.13
2023-05-10T11:24:00.150Z,18.64
2023-05-10T11:29:05.849Z,18.42
2023-05-10T11:34:08.541Z,18.29
2023-05-10T11:39:12.366Z,18.11
2023-05-10T11:44:16.414Z,18.25
2023-05-10T11:49:19.956Z,18.18
2023-05-10T11:54:22.612Z,18.20
2023-05-10T11:59:27.213Z,18.51
2023-05-10T12:04:30.341Z,18.53
2023-05-10T12:09:43.427Z,18.47
2023-05-10T12:14:50.961Z,18.24
2023-05-10T12:19:53.650Z,18.28
2023-05-10T12:24:56.340Z,18.24
2023-05-10T12:30:02.346Z,18.23
2023-05-10T12:35:05.978Z,18.13
2023-05-10T12:40:10.460Z,18.10
2023-05-10T12:45:14.625Z,18.05
2023-05-10T12:50:17.505Z,18.08
2023-05-10T12:55:20.207Z,18.11
2023-05-10T13:00:24.261Z,18.10
2023-05-10T13:05:26.950Z,18.23
2023-05-10T13:10:31.126Z,18.22
2023-05-10T13:15:35.193Z,18.46
2023-05-10T13:20:37.893Z,18.56
2023-05-10T13:25:40.581Z,18.55
2023-05-10T13:30:44.820Z,18.48
2023-05-10T13:35:47.470Z,18.49
2023-05-10T13:40:53.339Z,18.45
2023-05-10T13:45:57.720Z,18.49
2023-05-10T13:51:00.400Z,18.41
2023-05-10T13:56:03.815Z,18.31
2023-05-10T14:01:07.831Z,18.34
2023-05-10T14:06:10.457Z,18.29
2023-05-10T14:11:13.797Z,18.42
2023-05-10T14:16:17.799Z,18.46
2023-05-10T14:21:20.467Z,18.37
2023-05-10T14:26:23.124Z,18.53
2023-05-10T14:31:27.318Z,18.65
2023-05-10T14:36:30.056Z,18.59
2023-05-10T14:41:32.719Z,18.76
2023-05-10T14:46:36.790Z,18.71
2023-05-10T14:51:39.463Z,19.15
2023-05-10T14:56:42.424Z,18.82
2023-05-10T15:01:46.595Z,18.72
2023-05-10T15:06:49.655Z,18.65
2023-05-10T15:11:52.484Z,18.71
2023-05-10T15:16:56.467Z,18.66
2023-05-10T15:21:59.101Z,18.56
2023-05-10T15:27:02.014Z,18.53
2023-05-10T15:32:08.000Z,18.53
2023-05-10T15:37:10.779Z,18.54
2023-05-10T15:42:13.899Z,18.59
2023-05-10T15:47:18.045Z,18.55
2023-05-10T15:52:21.017Z,18.55
2023-05-10T15:57:23.607Z,18.59
2023-05-10T16:02:27.828Z,18.54
2023-05-10T16:07:30.527Z,18.54
2023-05-10T16:12:33.156Z,18.46
2023-05-10T16:17:37.482Z,18.46
2023-05-10T16:22:40.531Z,18.55
2023-05-10T16:28:17.826Z,18.62
2023-05-10T17:13:10.821Z,18.42
2023-05-10T17:18:19.258Z,18.52
2023-05-10T17:23:27.918Z,18.42
2023-05-10T18:01:15.314Z,17.69
2023-05-10T18:06:18.000Z,17.62
2023-05-10T18:11:21.781Z,17.54
2023-05-10T18:16:25.902Z,17.47
2023-05-10T18:21:28.903Z,17.50
2023-05-10T18:26:31.548Z,17.46
2023-05-10T18:31:35.560Z,17.43
2023-05-10T18:36:38.295Z,17.38
2023-05-10T18:41:40.950Z,17.34
2023-05-10T18:46:45.232Z,17.33
2023-05-10T18:51:51.280Z,17.26
2023-05-10T18:56:58.566Z,17.28
2023-05-10T19:02:02.629Z,17.23
2023-05-10T19:07:05.569Z,17.19
2023-05-10T19:12:08.813Z,17.19
2023-05-10T19:17:13.257Z,17.16
2023-05-10T19:22:15.953Z,17.09
2023-05-10T19:27:18.711Z,17.06
2023-05-10T19:32:24.092Z,17.00
2023-05-10T19:37:27.123Z,16.97
2023-05-10T19:42:29.782Z,16.91
2023-05-10T19:47:35.181Z,16.92
2023-05-10T19:52:38.118Z,16.87
2023-05-10T19:57:40.873Z,16.89
2023-05-10T20:02:44.918Z,16.84
2023-05-10T20:07:47.603Z,16.88
2023-05-10T20:12:52.396Z,16.79
2023-05-10T20:17:56.822Z,16.83
2023-05-10T20:22:59.443Z,16.76
2023-05-10T20:28:02.382Z,16.77
2023-05-10T20:33:06.729Z,16.69
2023-05-10T20:38:09.418Z,16.65
2023-05-10T20:43:12.138Z,16.70
2023-05-10T20:48:16.654Z,16.68
2023-05-10T20:53:19.360Z,16.64
2023-05-10T20:58:26.279Z,16.59
2023-05-10T21:03:31.006Z,16.55
2023-05-10T21:08:33.637Z,16.54
2023-05-10T21:13:36.272Z,16.53
2023-05-10T21:18:40.272Z,16.49
2023-05-10T21:23:42.928Z,16.43
2023-05-10T21:28:45.788Z,16.40
2023-05-10T21:33:49.841Z,16.40
2023-05-10T21:38:52.537Z,16.44
2023-05-10T21:43:56.220Z,16.33
2023-05-10T21:49:00.232Z,16.30
2023-05-10T21:54:02.872Z,16.31
2023-05-10T21:59:05.542Z,16.24
2023-05-10T22:04:09.541Z,16.26
2023-05-10T22:09:12.186Z,16.21
2023-05-10T22:14:14.880Z,16.22
2023-05-10T22:19:18.890Z,16.11
2023-05-10T22:24:21.534Z,16.07
2023-05-10T22:29:24.376Z,16.04
2023-05-10T22:34:28.593Z,16.05
2023-05-10T22:39:31.237Z,16.01
2023-05-10T22:44:33.922Z,16.00
2023-05-10T22:49:38.614Z,15.99
2023-05-10T22:54:41.369Z,15.96
2023-05-10T23:00:33.798Z,15.96
2023-05-10T23:05:37.907Z,15.95
2023-05-10T23:10:40.545Z,15.88
2023-05-10T23:15:43.540Z,15.87
2023-05-10T23:20:47.561Z,15.83
2023-05-10T23:25:50.295Z,15.67
2023-05-10T23:30:55.893Z,15.78
2023-05-10T23:35:59.813Z,15.75
2023-05-10T23:41:02.405Z,15.67
2023-05-10T23:46:06.455Z,15.67
2023-05-10T23:51:10.505Z,15.65
2023-05-10T23:56:13.175Z,15.71
